• Join FlightAware (Why Join?)
  • Login
  • US Flag 
02:01AM EDT


 

Airport Tracker/Info


-or-


 

Live Flight TrackerFlight Track Log ✈ N53NW ✈ 10-May-2013 ✈ KAHN - KAGS

Flight Track Log - Related Links

Times and Time Zones

All times are in EDT time to prevent confusion due to time zone crossing. See the N53NW flight status page for this flight to view local times or setup timezone preferences in your user account.

Time Position Orientation Groundspeed Altitude Reporting Facility
EDT Latitude Longitude Course Direction KTS MPH feet Rate Location/Type
05:07PM 33.9167 -83.3667 114° Southeast 231 266 3,400  Level Atlanta TRACON
05:08PM 33.8667 -83.2833 126° Southeast 256 295 4,600 1,740 Climbing Atlanta TRACON
05:09PM 33.8333 -83.2167 121° Southeast 269 310 6,900 1,200 Climbing Atlanta TRACON
05:10PM 33.8000 -83.1167 112° Southeast 279 321 7,000 60 Climbing Atlanta TRACON
05:12PM 33.7907 -83.0136 96° East  Level FlightAware Approximate
05:13PM 33.7923 -82.9532 114° Southeast  Level Estimated
05:19PM 33.5842 -82.4634 117° Southeast  Level FlightAware Approximate
05:20PM 33.5519 -82.3878 117° Southeast  Level FlightAware Approximate
05:21PM 33.5158 -82.3147 121° Southeast  Level FlightAware Approximate
05:22PM 33.4793 -82.2419 121° Southeast  Level FlightAware Approximate
05:23PM 33.4501 -82.1667 121° Southeast  Level FlightAware Approximate
05:24PM 33.4191 -82.0907 112° Southeast  Level FlightAware Approximate
05:25PM 33.3917 -82.0125 116° Southeast  Level FlightAware Approximate
05:26PM 33.3699 -81.9645 116° Southeast  Level Estimated
05:27PM 33.3699 -81.9645 116° Southeast  Level Estimated
05:28PM 33.3699 -81.9645 116° Southeast  Level Estimated
05:29PM 33.3699 -81.9645 116° Southeast  Level Estimated
05:30PM 33.3699 -81.9645 116° Southeast  Level Estimated
05:31PM 33.3699 -81.9645 116° Southeast  Level Estimated
05:32PM 33.3699 -81.9645 116° Southeast  Level Estimated
05:33PM 33.3699 -81.9645 116° Southeast  Level Estimated
05:34PM 33.3699 -81.9645 116° Southeast  Level Estimated
05:35PM 33.3699 -81.9645 116° Southeast  Level Estimated
05:36PM 33.3699 -81.9645 116° Southeast  Level Estimated